sensor_id;sensor_type;location;lat;lon;timestamp;pressure;altitude;pressure_sealevel;temperature
69590;BMP180;56792;50.644;17.984;2024-01-06T00:01:36;98545.40;;;1.18
69590;BMP180;56792;50.644;17.984;2024-01-06T00:04:07;98546.20;;;1.10
69590;BMP180;56792;50.644;17.984;2024-01-06T00:06:38;98547.60;;;1.06
69590;BMP180;56792;50.644;17.984;2024-01-06T00:09:09;98546.00;;;1.06
69590;BMP180;56792;50.644;17.984;2024-01-06T00:11:40;98546.00;;;1.10
69590;BMP180;56792;50.644;17.984;2024-01-06T00:14:11;98534.00;;;1.10
69590;BMP180;56792;50.644;17.984;2024-01-06T00:16:42;98538.80;;;1.20
69590;BMP180;56792;50.644;17.984;2024-01-06T00:19:13;98530.80;;;1.20
69590;BMP180;56792;50.644;17.984;2024-01-06T00:21:44;98533.20;;;1.14
69590;BMP180;56792;50.644;17.984;2024-01-06T00:24:16;98539.40;;;1.16
69590;BMP180;56792;50.644;17.984;2024-01-06T00:26:47;98539.80;;;1.20
69590;BMP180;56792;50.644;17.984;2024-01-06T00:29:18;98545.00;;;1.20
69590;BMP180;56792;50.644;17.984;2024-01-06T00:31:49;98552.80;;;1.10
69590;BMP180;56792;50.644;17.984;2024-01-06T00:34:20;98549.60;;;1.10
69590;BMP180;56792;50.644;17.984;2024-01-06T00:36:51;98546.80;;;1.10
69590;BMP180;56792;50.644;17.984;2024-01-06T00:39:22;98547.00;;;1.10
69590;BMP180;56792;50.644;17.984;2024-01-06T00:41:53;98551.40;;;1.00
69590;BMP180;56792;50.644;17.984;2024-01-06T00:44:25;98553.00;;;1.00
69590;BMP180;56792;50.644;17.984;2024-01-06T00:46:56;98557.60;;;0.94
69590;BMP180;56792;50.644;17.984;2024-01-06T00:49:27;98560.20;;;0.90
69590;BMP180;56792;50.644;17.984;2024-01-06T00:51:58;98563.80;;;0.90
69590;BMP180;56792;50.644;17.984;2024-01-06T00:54:29;98563.60;;;0.92
69590;BMP180;56792;50.644;17.984;2024-01-06T00:57:00;98568.60;;;0.96
69590;BMP180;56792;50.644;17.984;2024-01-06T00:59:31;98568.60;;;1.00
69590;BMP180;56792;50.644;17.984;2024-01-06T01:02:02;98569.60;;;0.90
69590;BMP180;56792;50.644;17.984;2024-01-06T01:04:33;98570.00;;;0.90
69590;BMP180;56792;50.644;17.984;2024-01-06T01:07:05;98568.80;;;0.90
69590;BMP180;56792;50.644;17.984;2024-01-06T01:09:36;98561.40;;;0.90
69590;BMP180;56792;50.644;17.984;2024-01-06T01:12:07;98566.00;;;0.90
69590;BMP180;56792;50.644;17.984;2024-01-06T01:14:38;98571.40;;;0.86
69590;BMP180;56792;50.644;17.984;2024-01-06T01:17:10;98579.60;;;0.78
69590;BMP180;56792;50.644;17.984;2024-01-06T01:19:41;98577.20;;;0.70
69590;BMP180;56792;50.644;17.984;2024-01-06T01:22:12;98566.20;;;0.78
69590;BMP180;56792;50.644;17.984;2024-01-06T01:24:43;98564.60;;;0.80
69590;BMP180;56792;50.644;17.984;2024-01-06T01:27:15;98570.40;;;0.70
69590;BMP180;56792;50.644;17.984;2024-01-06T01:29:46;98574.80;;;0.68
69590;BMP180;56792;50.644;17.984;2024-01-06T01:32:18;98571.00;;;0.68
69590;BMP180;56792;50.644;17.984;2024-01-06T01:34:49;98569.40;;;0.70
69590;BMP180;56792;50.644;17.984;2024-01-06T01:37:20;98572.40;;;0.70
69590;BMP180;56792;50.644;17.984;2024-01-06T01:39:51;98571.00;;;0.70
69590;BMP180;56792;50.644;17.984;2024-01-06T01:42:22;98571.40;;;0.70
69590;BMP180;56792;50.644;17.984;2024-01-06T01:44:53;98564.80;;;0.60
69590;BMP180;56792;50.644;17.984;2024-01-06T01:47:24;98559.00;;;0.66
69590;BMP180;56792;50.644;17.984;2024-01-06T01:49:56;98552.80;;;0.70
69590;BMP180;56792;50.644;17.984;2024-01-06T01:52:28;98547.60;;;0.70
69590;BMP180;56792;50.644;17.984;2024-01-06T01:55:00;98548.80;;;0.70
69590;BMP180;56792;50.644;17.984;2024-01-06T01:57:31;98546.80;;;0.80
69590;BMP180;56792;50.644;17.984;2024-01-06T02:00:04;98550.20;;;0.80
69590;BMP180;56792;50.644;17.984;2024-01-06T02:02:41;98555.20;;;0.90
69590;BMP180;56792;50.644;17.984;2024-01-06T02:05:12;98558.40;;;0.80
69590;BMP180;56792;50.644;17.984;2024-01-06T02:07:43;98573.60;;;0.82
69590;BMP180;56792;50.644;17.984;2024-01-06T02:10:15;98571.00;;;0.90
69590;BMP180;56792;50.644;17.984;2024-01-06T02:12:46;98565.60;;;0.90
69590;BMP180;56792;50.644;17.984;2024-01-06T02:15:17;98559.40;;;0.90
69590;BMP180;56792;50.644;17.984;2024-01-06T02:17:49;98554.20;;;0.90
69590;BMP180;56792;50.644;17.984;2024-01-06T02:20:21;98559.40;;;0.90
69590;BMP180;56792;50.644;17.984;2024-01-06T02:22:53;98558.80;;;0.90
69590;BMP180;56792;50.644;17.984;2024-01-06T02:25:26;98564.80;;;0.90
69590;BMP180;56792;50.644;17.984;2024-01-06T02:27:57;98562.80;;;0.80
69590;BMP180;56792;50.644;17.984;2024-01-06T02:30:28;98561.40;;;0.90
69590;BMP180;56792;50.644;17.984;2024-01-06T02:32:59;98558.40;;;0.90
69590;BMP180;56792;50.644;17.984;2024-01-06T02:35:30;98546.80;;;0.90
69590;BMP180;56792;50.644;17.984;2024-01-06T02:38:01;98544.60;;;0.90
69590;BMP180;56792;50.644;17.984;2024-01-06T02:40:32;98550.40;;;0.98
69590;BMP180;56792;50.644;17.984;2024-01-06T02:43:04;98552.20;;;0.90
69590;BMP180;56792;50.644;17.984;2024-01-06T02:45:35;98548.40;;;0.90
69590;BMP180;56792;50.644;17.984;2024-01-06T02:48:07;98547.80;;;0.90
69590;BMP180;56792;50.644;17.984;2024-01-06T02:50:38;98549.00;;;0.90
69590;BMP180;56792;50.644;17.984;2024-01-06T02:53:09;98543.00;;;0.92
69590;BMP180;56792;50.644;17.984;2024-01-06T02:55:42;98544.40;;;0.98
69590;BMP180;56792;50.644;17.984;2024-01-06T02:58:13;98548.80;;;1.00
69590;BMP180;56792;50.644;17.984;2024-01-06T03:00:44;98554.60;;;1.00
69590;BMP180;56792;50.644;17.984;2024-01-06T03:03:15;98556.20;;;0.90
69590;BMP180;56792;50.644;17.984;2024-01-06T03:05:46;98559.20;;;0.90
69590;BMP180;56792;50.644;17.984;2024-01-06T03:08:18;98566.20;;;0.90
69590;BMP180;56792;50.644;17.984;2024-01-06T03:10:50;98559.00;;;0.88
69590;BMP180;56792;50.644;17.984;2024-01-06T03:13:21;98554.00;;;0.80
69590;BMP180;56792;50.644;17.984;2024-01-06T03:15:52;98556.40;;;0.80
69590;BMP180;56792;50.644;17.984;2024-01-06T03:18:23;98559.00;;;0.80
69590;BMP180;56792;50.644;17.984;2024-01-06T03:20:54;98563.40;;;0.70
69590;BMP180;56792;50.644;17.984;2024-01-06T03:23:25;98564.40;;;0.66
69590;BMP180;56792;50.644;17.984;2024-01-06T03:25:56;98565.80;;;0.70
69590;BMP180;56792;50.644;17.984;2024-01-06T03:28:27;98566.00;;;0.70
69590;BMP180;56792;50.644;17.984;2024-01-06T03:30:58;98567.20;;;0.70
69590;BMP180;56792;50.644;17.984;2024-01-06T03:33:29;98568.60;;;0.80
69590;BMP180;56792;50.644;17.984;2024-01-06T03:36:05;98569.00;;;0.80
69590;BMP180;56792;50.644;17.984;2024-01-06T03:38:37;98565.40;;;0.90
69590;BMP180;56792;50.644;17.984;2024-01-06T03:41:08;98567.40;;;0.90
69590;BMP180;56792;50.644;17.984;2024-01-06T03:43:39;98562.20;;;0.90
69590;BMP180;56792;50.644;17.984;2024-01-06T03:46:10;98567.80;;;0.90
69590;BMP180;56792;50.644;17.984;2024-01-06T03:48:41;98568.40;;;0.90
69590;BMP180;56792;50.644;17.984;2024-01-06T03:51:13;98574.60;;;0.90
69590;BMP180;56792;50.644;17.984;2024-01-06T03:53:44;98569.80;;;1.00
69590;BMP180;56792;50.644;17.984;2024-01-06T03:56:16;98570.00;;;1.00
69590;BMP180;56792;50.644;17.984;2024-01-06T03:58:48;98576.20;;;1.00
69590;BMP180;56792;50.644;17.984;2024-01-06T04:01:19;98576.40;;;0.90
69590;BMP180;56792;50.644;17.984;2024-01-06T04:03:50;98575.60;;;0.90
69590;BMP180;56792;50.644;17.984;2024-01-06T04:06:21;98578.20;;;1.00
69590;BMP180;56792;50.644;17.984;2024-01-06T04:08:53;98577.00;;;1.00
69590;BMP180;56792;50.644;17.984;2024-01-06T04:11:24;98568.00;;;1.00
69590;BMP180;56792;50.644;17.984;2024-01-06T04:13:55;98569.40;;;1.00
69590;BMP180;56792;50.644;17.984;2024-01-06T04:16:28;98573.60;;;1.00
69590;BMP180;56792;50.644;17.984;2024-01-06T04:18:59;98576.60;;;1.10
69590;BMP180;56792;50.644;17.984;2024-01-06T04:21:30;98578.40;;;1.06
69590;BMP180;56792;50.644;17.984;2024-01-06T04:24:01;98583.40;;;1.02
69590;BMP180;56792;50.644;17.984;2024-01-06T04:26:33;98581.40;;;1.08
69590;BMP180;56792;50.644;17.984;2024-01-06T04:29:04;98584.60;;;1.00
69590;BMP180;56792;50.644;17.984;2024-01-06T04:31:35;98586.80;;;1.06
69590;BMP180;56792;50.644;17.984;2024-01-06T04:34:06;98591.00;;;1.10
69590;BMP180;56792;50.644;17.984;2024-01-06T04:36:37;98593.80;;;1.10
69590;BMP180;56792;50.644;17.984;2024-01-06T04:39:08;98594.60;;;1.10
69590;BMP180;56792;50.644;17.984;2024-01-06T04:41:39;98600.40;;;1.10
69590;BMP180;56792;50.644;17.984;2024-01-06T04:44:10;98597.80;;;1.10
69590;BMP180;56792;50.644;17.984;2024-01-06T04:46:41;98596.00;;;1.10
69590;BMP180;56792;50.644;17.984;2024-01-06T04:49:13;98592.40;;;1.10
69590;BMP180;56792;50.644;17.984;2024-01-06T04:51:44;98594.00;;;1.06
69590;BMP180;56792;50.644;17.984;2024-01-06T04:54:15;98596.00;;;1.10
69590;BMP180;56792;50.644;17.984;2024-01-06T04:56:46;98594.40;;;1.10
69590;BMP180;56792;50.644;17.984;2024-01-06T04:59:17;98595.20;;;1.10
69590;BMP180;56792;50.644;17.984;2024-01-06T05:01:48;98600.20;;;1.10
69590;BMP180;56792;50.644;17.984;2024-01-06T05:04:21;98602.00;;;1.10
69590;BMP180;56792;50.644;17.984;2024-01-06T05:06:52;98608.40;;;1.10
69590;BMP180;56792;50.644;17.984;2024-01-06T05:09:24;98605.80;;;1.10
69590;BMP180;56792;50.644;17.984;2024-01-06T05:11:56;98609.00;;;1.10
69590;BMP180;56792;50.644;17.984;2024-01-06T05:14:27;98608.40;;;1.10
69590;BMP180;56792;50.644;17.984;2024-01-06T05:16:58;98606.80;;;1.12
69590;BMP180;56792;50.644;17.984;2024-01-06T05:19:29;98605.00;;;1.20
69590;BMP180;56792;50.644;17.984;2024-01-06T05:22:00;98600.00;;;1.20
69590;BMP180;56792;50.644;17.984;2024-01-06T05:24:31;98599.60;;;1.20
69590;BMP180;56792;50.644;17.984;2024-01-06T05:27:03;98600.20;;;1.20
69590;BMP180;56792;50.644;17.984;2024-01-06T05:29:34;98607.20;;;1.20
69590;BMP180;56792;50.644;17.984;2024-01-06T05:32:06;98610.40;;;1.20
69590;BMP180;56792;50.644;17.984;2024-01-06T05:34:37;98617.00;;;1.20
69590;BMP180;56792;50.644;17.984;2024-01-06T05:37:08;98610.60;;;1.18
69590;BMP180;56792;50.644;17.984;2024-01-06T05:39:41;98602.60;;;1.20
69590;BMP180;56792;50.644;17.984;2024-01-06T05:42:14;98607.20;;;1.20
69590;BMP180;56792;50.644;17.984;2024-01-06T05:44:45;98602.60;;;1.20
69590;BMP180;56792;50.644;17.984;2024-01-06T05:47:16;98604.00;;;1.20
69590;BMP180;56792;50.644;17.984;2024-01-06T05:49:47;98612.40;;;1.20
69590;BMP180;56792;50.644;17.984;2024-01-06T05:52:19;98619.80;;;1.20
69590;BMP180;56792;50.644;17.984;2024-01-06T05:54:50;98620.40;;;1.20
69590;BMP180;56792;50.644;17.984;2024-01-06T05:57:21;98618.20;;;1.20
69590;BMP180;56792;50.644;17.984;2024-01-06T05:59:52;98619.40;;;1.22
69590;BMP180;56792;50.644;17.984;2024-01-06T06:02:23;98620.60;;;1.28
69590;BMP180;56792;50.644;17.984;2024-01-06T06:04:54;98620.20;;;1.30
69590;BMP180;56792;50.644;17.984;2024-01-06T06:07:25;98624.60;;;1.30
69590;BMP180;56792;50.644;17.984;2024-01-06T06:09:57;98620.00;;;1.26
69590;BMP180;56792;50.644;17.984;2024-01-06T06:12:28;98622.40;;;1.26
69590;BMP180;56792;50.644;17.984;2024-01-06T06:14:59;98625.20;;;1.20
69590;BMP180;56792;50.644;17.984;2024-01-06T06:17:30;98623.00;;;1.20
69590;BMP180;56792;50.644;17.984;2024-01-06T06:20:01;98629.00;;;1.20
69590;BMP180;56792;50.644;17.984;2024-01-06T06:22:33;98634.80;;;1.20
69590;BMP180;56792;50.644;17.984;2024-01-06T06:25:05;98637.40;;;1.14
69590;BMP180;56792;50.644;17.984;2024-01-06T06:27:36;98643.20;;;1.10
69590;BMP180;56792;50.644;17.984;2024-01-06T06:30:10;98652.20;;;1.20
69590;BMP180;56792;50.644;17.984;2024-01-06T06:32:41;98655.20;;;1.10
69590;BMP180;56792;50.644;17.984;2024-01-06T06:35:13;98659.80;;;1.06
69590;BMP180;56792;50.644;17.984;2024-01-06T06:37:44;98665.20;;;1.10
69590;BMP180;56792;50.644;17.984;2024-01-06T06:40:15;98663.60;;;1.08
69590;BMP180;56792;50.644;17.984;2024-01-06T06:42:47;98674.60;;;1.08
69590;BMP180;56792;50.644;17.984;2024-01-06T06:45:18;98672.00;;;1.10
69590;BMP180;56792;50.644;17.984;2024-01-06T06:47:52;98672.00;;;1.10
69590;BMP180;56792;50.644;17.984;2024-01-06T06:50:23;98674.60;;;1.10
69590;BMP180;56792;50.644;17.984;2024-01-06T06:52:54;98676.20;;;1.20
69590;BMP180;56792;50.644;17.984;2024-01-06T06:55:25;98677.20;;;1.20
69590;BMP180;56792;50.644;17.984;2024-01-06T06:57:56;98675.00;;;1.20
69590;BMP180;56792;50.644;17.984;2024-01-06T07:00:28;98675.80;;;1.20
69590;BMP180;56792;50.644;17.984;2024-01-06T07:02:59;98680.40;;;1.24
69590;BMP180;56792;50.644;17.984;2024-01-06T07:05:30;98685.60;;;1.30
69590;BMP180;56792;50.644;17.984;2024-01-06T07:08:03;98685.40;;;1.28
69590;BMP180;56792;50.644;17.984;2024-01-06T07:10:34;98686.60;;;1.30
69590;BMP180;56792;50.644;17.984;2024-01-06T07:13:05;98690.40;;;1.30
69590;BMP180;56792;50.644;17.984;2024-01-06T07:15:36;98698.60;;;1.30
69590;BMP180;56792;50.644;17.984;2024-01-06T07:18:08;98702.00;;;1.32
69590;BMP180;56792;50.644;17.984;2024-01-06T07:20:39;98702.60;;;1.40
69590;BMP180;56792;50.644;17.984;2024-01-06T07:23:10;98700.00;;;1.40
69590;BMP180;56792;50.644;17.984;2024-01-06T07:25:42;98701.40;;;1.40
69590;BMP180;56792;50.644;17.984;2024-01-06T07:28:13;98698.80;;;1.44
69590;BMP180;56792;50.644;17.984;2024-01-06T07:30:45;98702.20;;;1.50
69590;BMP180;56792;50.644;17.984;2024-01-06T07:33:16;98698.20;;;1.50
69590;BMP180;56792;50.644;17.984;2024-01-06T07:35:47;98697.40;;;1.50
69590;BMP180;56792;50.644;17.984;2024-01-06T07:38:18;98685.40;;;1.52
69590;BMP180;56792;50.644;17.984;2024-01-06T07:40:49;98696.00;;;1.60
69590;BMP180;56792;50.644;17.984;2024-01-06T07:43:20;98705.60;;;1.60
69590;BMP180;56792;50.644;17.984;2024-01-06T07:45:51;98707.40;;;1.60
69590;BMP180;56792;50.644;17.984;2024-01-06T07:48:22;98716.20;;;1.60
69590;BMP180;56792;50.644;17.984;2024-01-06T07:50:54;98714.80;;;1.62
69590;BMP180;56792;50.644;17.984;2024-01-06T07:53:25;98720.80;;;1.62
69590;BMP180;56792;50.644;17.984;2024-01-06T07:55:56;98730.60;;;1.70
69590;BMP180;56792;50.644;17.984;2024-01-06T07:58:27;98729.60;;;1.70
69590;BMP180;56792;50.644;17.984;2024-01-06T08:00:59;98726.60;;;1.70
69590;BMP180;56792;50.644;17.984;2024-01-06T08:03:31;98730.00;;;1.70
69590;BMP180;56792;50.644;17.984;2024-01-06T08:06:02;98731.80;;;1.80
69590;BMP180;56792;50.644;17.984;2024-01-06T08:08:33;98736.60;;;1.80
69590;BMP180;56792;50.644;17.984;2024-01-06T08:11:05;98740.20;;;1.80
69590;BMP180;56792;50.644;17.984;2024-01-06T08:13:36;98746.60;;;1.80
69590;BMP180;56792;50.644;17.984;2024-01-06T08:16:08;98747.80;;;1.82
69590;BMP180;56792;50.644;17.984;2024-01-06T08:18:39;98752.40;;;1.88
69590;BMP180;56792;50.644;17.984;2024-01-06T08:21:10;98750.60;;;1.80
69590;BMP180;56792;50.644;17.984;2024-01-06T08:23:41;98755.80;;;1.82
69590;BMP180;56792;50.644;17.984;2024-01-06T08:26:12;98755.00;;;1.82
69590;BMP180;56792;50.644;17.984;2024-01-06T08:28:43;98751.60;;;1.80
69590;BMP180;56792;50.644;17.984;2024-01-06T08:31:15;98758.60;;;1.74
69590;BMP180;56792;50.644;17.984;2024-01-06T08:33:46;98759.00;;;1.70
69590;BMP180;56792;50.644;17.984;2024-01-06T08:36:17;98767.80;;;1.70
69590;BMP180;56792;50.644;17.984;2024-01-06T08:38:48;98769.40;;;1.70
69590;BMP180;56792;50.644;17.984;2024-01-06T08:41:19;98776.60;;;1.70
69590;BMP180;56792;50.644;17.984;2024-01-06T08:43:51;98783.40;;;1.70
69590;BMP180;56792;50.644;17.984;2024-01-06T08:46:22;98783.80;;;1.70
69590;BMP180;56792;50.644;17.984;2024-01-06T08:48:53;98789.20;;;1.80
69590;BMP180;56792;50.644;17.984;2024-01-06T08:51:24;98786.40;;;1.78
69590;BMP180;56792;50.644;17.984;2024-01-06T08:53:56;98783.60;;;1.80
69590;BMP180;56792;50.644;17.984;2024-01-06T08:56:27;98789.80;;;1.80
69590;BMP180;56792;50.644;17.984;2024-01-06T08:58:58;98785.80;;;1.80
69590;BMP180;56792;50.644;17.984;2024-01-06T09:01:29;98789.20;;;1.80
69590;BMP180;56792;50.644;17.984;2024-01-06T09:04:01;98788.80;;;1.80
69590;BMP180;56792;50.644;17.984;2024-01-06T09:06:32;98795.20;;;1.80
69590;BMP180;56792;50.644;17.984;2024-01-06T09:09:03;98801.80;;;1.86
69590;BMP180;56792;50.644;17.984;2024-01-06T09:11:35;98801.80;;;1.84
69590;BMP180;56792;50.644;17.984;2024-01-06T09:14:06;98805.00;;;1.88
69590;BMP180;56792;50.644;17.984;2024-01-06T09:16:37;98808.20;;;1.90
69590;BMP180;56792;50.644;17.984;2024-01-06T09:19:08;98803.00;;;1.80
69590;BMP180;56792;50.644;17.984;2024-01-06T09:21:39;98806.60;;;1.80
69590;BMP180;56792;50.644;17.984;2024-01-06T09:24:10;98807.20;;;1.82
69590;BMP180;56792;50.644;17.984;2024-01-06T09:26:42;98813.60;;;1.80
69590;BMP180;56792;50.644;17.984;2024-01-06T09:29:14;98811.00;;;1.86
69590;BMP180;56792;50.644;17.984;2024-01-06T09:31:46;98814.40;;;1.90
69590;BMP180;56792;50.644;17.984;2024-01-06T09:34:17;98818.60;;;1.88
69590;BMP180;56792;50.644;17.984;2024-01-06T09:36:48;98817.00;;;1.90
69590;BMP180;56792;50.644;17.984;2024-01-06T09:39:19;98818.20;;;1.90
69590;BMP180;56792;50.644;17.984;2024-01-06T09:41:50;98823.80;;;1.90
69590;BMP180;56792;50.644;17.984;2024-01-06T09:44:21;98821.00;;;1.90
69590;BMP180;56792;50.644;17.984;2024-01-06T09:46:52;98823.40;;;1.90
69590;BMP180;56792;50.644;17.984;2024-01-06T09:49:29;98822.60;;;2.00
69590;BMP180;56792;50.644;17.984;2024-01-06T09:52:02;98825.40;;;2.00
69590;BMP180;56792;50.644;17.984;2024-01-06T09:54:39;98827.60;;;2.00
69590;BMP180;56792;50.644;17.984;2024-01-06T09:57:12;98826.60;;;2.00
69590;BMP180;56792;50.644;17.984;2024-01-06T09:59:45;98826.00;;;2.00
69590;BMP180;56792;50.644;17.984;2024-01-06T10:02:18;98830.80;;;2.00
69590;BMP180;56792;50.644;17.984;2024-01-06T10:04:50;98824.80;;;1.96
69590;BMP180;56792;50.644;17.984;2024-01-06T10:07:22;98823.40;;;1.90
69590;BMP180;56792;50.644;17.984;2024-01-06T10:09:55;98820.60;;;1.90
69590;BMP180;56792;50.644;17.984;2024-01-06T10:12:29;98819.60;;;1.90
69590;BMP180;56792;50.644;17.984;2024-01-06T10:15:00;98816.60;;;1.98
69590;BMP180;56792;50.644;17.984;2024-01-06T10:17:31;98817.40;;;2.00
69590;BMP180;56792;50.644;17.984;2024-01-06T10:20:02;98817.80;;;2.00
69590;BMP180;56792;50.644;17.984;2024-01-06T10:22:36;98818.40;;;2.00
69590;BMP180;56792;50.644;17.984;2024-01-06T10:25:09;98827.60;;;2.00
69590;BMP180;56792;50.644;17.984;2024-01-06T10:27:42;98831.00;;;2.00
69590;BMP180;56792;50.644;17.984;2024-01-06T10:30:13;98829.20;;;2.00
69590;BMP180;56792;50.644;17.984;2024-01-06T10:32:48;98831.20;;;2.00
69590;BMP180;56792;50.644;17.984;2024-01-06T10:35:20;98825.80;;;2.02
69590;BMP180;56792;50.644;17.984;2024-01-06T10:37:53;98826.00;;;2.08
69590;BMP180;56792;50.644;17.984;2024-01-06T10:40:25;98826.20;;;2.10
69590;BMP180;56792;50.644;17.984;2024-01-06T10:42:57;98826.20;;;2.10
69590;BMP180;56792;50.644;17.984;2024-01-06T10:45:30;98822.20;;;2.10
69590;BMP180;56792;50.644;17.984;2024-01-06T10:48:03;98824.00;;;2.10
69590;BMP180;56792;50.644;17.984;2024-01-06T10:50:36;98825.60;;;2.10
69590;BMP180;56792;50.644;17.984;2024-01-06T10:53:08;98828.60;;;2.10
69590;BMP180;56792;50.644;17.984;2024-01-06T10:55:41;98829.60;;;2.10
69590;BMP180;56792;50.644;17.984;2024-01-06T10:58:14;98831.60;;;2.10
69590;BMP180;56792;50.644;17.984;2024-01-06T11:00:46;98832.80;;;2.10
69590;BMP180;56792;50.644;17.984;2024-01-06T11:03:18;98831.60;;;2.10
69590;BMP180;56792;50.644;17.984;2024-01-06T11:05:50;98831.00;;;2.10
69590;BMP180;56792;50.644;17.984;2024-01-06T11:08:22;98833.40;;;2.10
69590;BMP180;56792;50.644;17.984;2024-01-06T11:10:54;98836.00;;;2.10
69590;BMP180;56792;50.644;17.984;2024-01-06T11:13:26;98832.80;;;2.10
69590;BMP180;56792;50.644;17.984;2024-01-06T11:15:58;98828.60;;;2.20
69590;BMP180;56792;50.644;17.984;2024-01-06T11:18:37;98826.80;;;2.20
69590;BMP180;56792;50.644;17.984;2024-01-06T11:21:22;98821.60;;;2.20
69590;BMP180;56792;50.644;17.984;2024-01-06T11:24:19;98822.60;;;2.20
69590;BMP180;56792;50.644;17.984;2024-01-06T11:26:56;98823.60;;;2.20
69590;BMP180;56792;50.644;17.984;2024-01-06T11:29:27;98822.00;;;2.20
69590;BMP180;56792;50.644;17.984;2024-01-06T11:32:29;98823.40;;;2.20
69590;BMP180;56792;50.644;17.984;2024-01-06T11:35:10;98827.20;;;2.20
69590;BMP180;56792;50.644;17.984;2024-01-06T11:37:56;98826.20;;;2.20
69590;BMP180;56792;50.644;17.984;2024-01-06T11:40:34;98823.40;;;2.20
69590;BMP180;56792;50.644;17.984;2024-01-06T11:43:08;98824.80;;;2.20
69590;BMP180;56792;50.644;17.984;2024-01-06T11:45:42;98824.60;;;2.20
69590;BMP180;56792;50.644;17.984;2024-01-06T11:48:14;98826.80;;;2.20
69590;BMP180;56792;50.644;17.984;2024-01-06T11:50:46;98828.60;;;2.20
69590;BMP180;56792;50.644;17.984;2024-01-06T11:53:17;98830.60;;;2.20
69590;BMP180;56792;50.644;17.984;2024-01-06T11:55:51;98830.00;;;2.20
69590;BMP180;56792;50.644;17.984;2024-01-06T11:58:22;98828.20;;;2.20
69590;BMP180;56792;50.644;17.984;2024-01-06T12:00:59;98828.40;;;2.20
69590;BMP180;56792;50.644;17.984;2024-01-06T12:03:30;98829.40;;;2.20
69590;BMP180;56792;50.644;17.984;2024-01-06T12:06:05;98829.80;;;2.18
69590;BMP180;56792;50.644;17.984;2024-01-06T12:08:39;98826.20;;;2.10
69590;BMP180;56792;50.644;17.984;2024-01-06T12:11:10;98823.80;;;2.10
69590;BMP180;56792;50.644;17.984;2024-01-06T12:13:41;98819.60;;;2.20
69590;BMP180;56792;50.644;17.984;2024-01-06T12:16:12;98820.20;;;2.20
69590;BMP180;56792;50.644;17.984;2024-01-06T12:18:43;98825.00;;;2.20
69590;BMP180;56792;50.644;17.984;2024-01-06T12:21:15;98827.20;;;2.20
69590;BMP180;56792;50.644;17.984;2024-01-06T12:23:46;98829.00;;;2.20
69590;BMP180;56792;50.644;17.984;2024-01-06T12:26:17;98824.40;;;2.24
69590;BMP180;56792;50.644;17.984;2024-01-06T12:28:50;98827.00;;;2.20
69590;BMP180;56792;50.644;17.984;2024-01-06T12:31:21;98830.60;;;2.20
69590;BMP180;56792;50.644;17.984;2024-01-06T12:33:53;98836.40;;;2.20
69590;BMP180;56792;50.644;17.984;2024-01-06T12:36:24;98837.40;;;2.18
69590;BMP180;56792;50.644;17.984;2024-01-06T12:38:55;98839.40;;;2.10
69590;BMP180;56792;50.644;17.984;2024-01-06T12:41:28;98839.60;;;2.10
69590;BMP180;56792;50.644;17.984;2024-01-06T12:44:00;98837.00;;;2.10
69590;BMP180;56792;50.644;17.984;2024-01-06T12:46:31;98842.20;;;2.10
69590;BMP180;56792;50.644;17.984;2024-01-06T12:49:02;98845.20;;;2.00
69590;BMP180;56792;50.644;17.984;2024-01-06T12:51:33;98847.20;;;2.00
69590;BMP180;56792;50.644;17.984;2024-01-06T12:54:05;98846.80;;;1.94
69590;BMP180;56792;50.644;17.984;2024-01-06T12:56:36;98847.20;;;1.90
69590;BMP180;56792;50.644;17.984;2024-01-06T12:59:07;98848.00;;;1.90
69590;BMP180;56792;50.644;17.984;2024-01-06T13:01:38;98845.00;;;1.90
69590;BMP180;56792;50.644;17.984;2024-01-06T13:04:10;98853.80;;;1.90
69590;BMP180;56792;50.644;17.984;2024-01-06T13:06:42;98858.20;;;1.90
69590;BMP180;56792;50.644;17.984;2024-01-06T13:09:13;98855.00;;;1.90
69590;BMP180;56792;50.644;17.984;2024-01-06T13:11:46;98861.40;;;1.90
69590;BMP180;56792;50.644;17.984;2024-01-06T13:14:17;98861.40;;;1.90
69590;BMP180;56792;50.644;17.984;2024-01-06T13:16:48;98859.40;;;1.86
69590;BMP180;56792;50.644;17.984;2024-01-06T13:19:19;98859.40;;;1.80
69590;BMP180;56792;50.644;17.984;2024-01-06T13:21:51;98867.80;;;1.80
69590;BMP180;56792;50.644;17.984;2024-01-06T13:24:23;98865.40;;;1.80
69590;BMP180;56792;50.644;17.984;2024-01-06T13:26:55;98873.20;;;1.80
69590;BMP180;56792;50.644;17.984;2024-01-06T13:29:28;98872.60;;;1.80
69590;BMP180;56792;50.644;17.984;2024-01-06T13:31:59;98871.80;;;1.80
69590;BMP180;56792;50.644;17.984;2024-01-06T13:34:31;98876.60;;;1.80
69590;BMP180;56792;50.644;17.984;2024-01-06T13:37:02;98881.40;;;1.80
69590;BMP180;56792;50.644;17.984;2024-01-06T13:39:33;98886.20;;;1.80
69590;BMP180;56792;50.644;17.984;2024-01-06T13:42:06;98890.80;;;1.76
69590;BMP180;56792;50.644;17.984;2024-01-06T13:44:37;98894.20;;;1.70
69590;BMP180;56792;50.644;17.984;2024-01-06T13:47:09;98898.60;;;1.70
69590;BMP180;56792;50.644;17.984;2024-01-06T13:49:40;98896.40;;;1.70
69590;BMP180;56792;50.644;17.984;2024-01-06T13:52:11;98891.00;;;1.70
69590;BMP180;56792;50.644;17.984;2024-01-06T13:54:42;98894.00;;;1.68
69590;BMP180;56792;50.644;17.984;2024-01-06T13:57:13;98890.20;;;1.60
69590;BMP180;56792;50.644;17.984;2024-01-06T13:59:44;98896.00;;;1.60
69590;BMP180;56792;50.644;17.984;2024-01-06T14:02:16;98899.40;;;1.50
69590;BMP180;56792;50.644;17.984;2024-01-06T14:04:47;98901.20;;;1.50
69590;BMP180;56792;50.644;17.984;2024-01-06T14:07:18;98898.00;;;1.50
69590;BMP180;56792;50.644;17.984;2024-01-06T14:09:51;98902.20;;;1.50
69590;BMP180;56792;50.644;17.984;2024-01-06T14:12:22;98898.60;;;1.50
69590;BMP180;56792;50.644;17.984;2024-01-06T14:14:53;98904.00;;;1.50
69590;BMP180;56792;50.644;17.984;2024-01-06T14:17:24;98899.40;;;1.42
69590;BMP180;56792;50.644;17.984;2024-01-06T14:19:55;98902.00;;;1.44
69590;BMP180;56792;50.644;17.984;2024-01-06T14:22:27;98900.80;;;1.46
69590;BMP180;56792;50.644;17.984;2024-01-06T14:24:58;98896.20;;;1.48
69590;BMP180;56792;50.644;17.984;2024-01-06T14:27:29;98902.00;;;1.40
69590;BMP180;56792;50.644;17.984;2024-01-06T14:30:00;98907.40;;;1.40
69590;BMP180;56792;50.644;17.984;2024-01-06T14:32:31;98907.60;;;1.30
69590;BMP180;56792;50.644;17.984;2024-01-06T14:35:03;98913.40;;;1.30